Date,TemperatureHighF,TemperatureAvgF,TemperatureLowF,DewpointHighF,DewpointAvgF,DewpointLowF,HumidityHigh,HumidityAvg,HumidityLow,PressureMaxIn,PressureMinIn,WindSpeedMaxMPH,WindSpeedAvgMPH,GustSpeedMaxMPH,PrecipitationSumIn
2013-3-1,35,32,29,29,26,22,89,81,66,30.22,30.09,7,3,11,0.06
2013-3-2,36,30,26,22,16,12,75,58,39,30.27,30.21,10,4,14,0.01
2013-3-3,42,32,21,23,16,12,71,53,32,30.24,30.05,6,1,8,0.00
2013-3-4,58,44,36,39,30,23,69,57,40,30.06,29.78,6,2,10,0.00
2013-3-5,45,36,32,34,27,17,92,71,48,30.15,29.81,23,5,36,0.20
2013-3-6,40,34,30,24,20,18,72,58,47,30.38,30.14,14,4,24,0.04
2013-3-7,54,37,27,29,24,18,76,61,36,30.44,30.33,5,1,8,0.00
2013-3-8,60,44,32,34,29,24,77,58,32,30.45,30.22,4,1,6,0.00
2013-3-9,72,54,42,42,36,29,85,53,28,30.22,29.83,4,1,9,0.05
2013-3-10,59,54,47,54,49,41,99,85,51,29.84,29.67,16,2,25,0.61
2013-3-11,47,37,34,45,30,21,93,77,54,30.02,29.74,19,7,30,0.00
2013-3-12,51,38,31,26,22,16,73,53,25,30.23,30.00,18,5,27,0.00
2013-3-13,44,35,29,24,16,10,78,46,26,30.44,30.23,11,4,23,0.00
2013-3-14,55,40,31,33,25,16,70,55,37,30.42,30.11,8,1,11,0.00
2013-3-15,75,54,36,49,39,28,84,60,32,30.12,29.69,6,0,9,0.00
2013-3-16,66,49,40,48,40,36,92,73,44,30.08,29.67,12,3,19,0.02
2013-3-17,40,37,35,37,33,28,99,85,74,30.12,29.80,6,1,12,0.21
2013-3-18,52,42,37,39,34,19,99,76,39,30.04,29.71,19,4,27,0.01
2013-3-19,49,40,32,20,11,4,55,33,18,30.24,30.04,14,3,19,0.00
2013-3-20,40,33,28,29,14,0,76,47,23,30.30,30.13,13,5,19,0.00
2013-3-21,42,31,23,16,9,3,50,40,24,30.15,30.01,5,1,8,0.00
2013-3-22,45,38,33,25,21,16,56,51,39,30.08,30.00,4,0,6,0.00
2013-3-23,40,39,39,24,23,23,55,52,51,30.05,30.03,1,0,3,0.00
2013-3-31,70,64,54,42,35,27,52,36,21,29.97,29.86,11,4,22,0.00